Terminal Aerodrome Forecast
Issued by NWS Bismarck, ND

Home | Current Version | Previous Version | Graphics & Text | Print | Product List | Glossary On
Versions: 1 2 3 4 5 6 7 8 9 10 11 12 13 14 15
821
FTUS43 KBIS 211122
TAFBIS
TAF
KBIS 211122Z 2112/2212 11007KT P6SM SCT200
     FM211600 23010KT P6SM FEW080 FEW250
     FM211900 29015G23KT P6SM FEW080 FEW250
     FM212200 32016G24KT P6SM FEW090 FEW250
     FM220100 34010KT P6SM SKC=

USA.gov is the U.S. government's official web portal to all federal, state and local government web resources and services.